Time;durP1;ratioP1;P1;durP2;ratioP2;P2;SDS_P1;SDS_P2;PMS_P1;PMS_P2;Temp;Humidity;BMP_temperature;BMP_pressure;BME280_temperature;BME280_humidity;BME280_pressure;Samples;Min_cycle;Max_cycle;Signal;HPM_P1;HPM_P2
2021/03/16 00:00:22;;;;;;;8.95;1.40;;;3.60;99.90;;;;;;4977744;28;20439;-85
2021/03/16 00:02:48;;;;;;;7.85;1.85;;;3.50;99.90;;;;;;4977509;28;20480;-85
2021/03/16 00:05:15;;;;;;;3.08;1.30;;;3.40;99.90;;;;;;4979446;28;20050;-85
2021/03/16 00:07:41;;;;;;;10.30;1.42;;;3.40;99.90;;;;;;4979573;28;20050;-86
2021/03/16 00:10:08;;;;;;;5.15;1.40;;;3.30;99.90;;;;;;4979127;28;20078;-86
2021/03/16 00:12:40;;;;;;;6.15;1.40;;;3.30;99.90;;;;;;4979451;28;20050;-86
2021/03/16 00:15:07;;;;;;;5.95;1.10;;;3.30;99.90;;;;;;4980243;28;20057;-86
2021/03/16 00:17:33;;;;;;;7.55;1.30;;;3.20;99.90;;;;;;4978967;28;20104;-86
2021/03/16 00:20:00;;;;;;;5.15;1.23;;;3.20;99.90;;;;;;4979465;28;20540;-86
2021/03/16 00:22:28;;;;;;;5.80;1.23;;;3.20;99.90;;;;;;4980303;28;20050;-86
2021/03/16 00:25:26;;;;;;;1.70;0.82;;;3.30;99.90;;;;;;4982099;28;20427;-86
2021/03/16 00:27:52;;;;;;;4.70;1.10;;;3.30;99.90;;;;;;4978989;28;20050;-86
2021/03/16 00:30:26;;;;;;;3.50;1.10;;;3.40;99.90;;;;;;4979766;28;20046;-86
2021/03/16 00:32:53;;;;;;;4.45;1.08;;;3.40;99.90;;;;;;4978972;28;20050;-86
2021/03/16 00:35:19;;;;;;;4.15;1.02;;;3.30;99.90;;;;;;4991921;28;20100;-85
2021/03/16 00:37:45;;;;;;;4.72;1.20;;;3.30;99.90;;;;;;4998995;28;20050;-86
2021/03/16 00:40:12;;;;;;;7.70;1.50;;;3.30;99.90;;;;;;4998698;28;20086;-86
2021/03/16 00:42:40;;;;;;;4.30;1.08;;;3.40;99.90;;;;;;4998401;28;20050;-86
2021/03/16 00:45:07;;;;;;;7.78;2.05;;;3.40;99.90;;;;;;4999079;28;20101;-86
2021/03/16 00:47:34;;;;;;;5.13;1.05;;;3.30;99.90;;;;;;5003213;28;20104;-85
2021/03/16 00:50:07;;;;;;;8.30;1.10;;;3.30;99.90;;;;;;5006287;28;20057;-85
2021/03/16 00:52:33;;;;;;;7.28;1.30;;;3.30;99.90;;;;;;5008104;28;20054;-85
2021/03/16 00:54:59;;;;;;;4.93;1.25;;;3.30;99.90;;;;;;5004949;28;20073;-84
2021/03/16 00:57:26;;;;;;;9.13;1.92;;;3.30;99.90;;;;;;5003073;28;20046;-86
2021/03/16 00:59:52;;;;;;;5.20;1.42;;;3.30;99.90;;;;;;5000967;28;20108;-86
2021/03/16 01:02:30;;;;;;;14.40;1.60;;;3.30;99.90;;;;;;4921356;29;20048;-86
2021/03/16 01:04:57;;;;;;;4.70;1.38;;;3.40;99.90;;;;;;4920307;29;20056;-87
2021/03/16 01:07:23;;;;;;;10.10;1.63;;;3.40;99.90;;;;;;4920763;29;20108;-87
2021/03/16 01:09:50;;;;;;;4.45;1.30;;;3.40;99.90;;;;;;4922613;29;20139;-87
2021/03/16 01:12:16;;;;;;;3.53;1.27;;;3.40;99.90;;;;;;4923904;29;20048;-86
2021/03/16 01:14:43;;;;;;;4.85;1.40;;;3.40;99.90;;;;;;4919602;29;20556;-86
2021/03/16 01:17:10;;;;;;;5.13;1.20;;;3.40;99.90;;;;;;4919012;29;20156;-85
2021/03/16 01:19:38;;;;;;;6.43;1.48;;;3.50;99.90;;;;;;4927714;28;20134;-85
2021/03/16 01:22:04;;;;;;;7.40;1.60;;;3.50;99.90;;;;;;5002952;28;20573;-86
2021/03/16 01:24:33;;;;;;;8.07;1.67;;;3.50;99.90;;;;;;5004995;28;20058;-85
2021/03/16 01:26:59;;;;;;;4.18;1.42;;;3.50;99.90;;;;;;5004672;28;20431;-86
2021/03/16 01:29:25;;;;;;;12.82;1.42;;;3.50;99.90;;;;;;5003694;28;20488;-86
2021/03/16 01:32:03;;;;;;;6.10;1.60;;;3.50;99.90;;;;;;5023351;28;20080;-86
2021/03/16 01:34:34;;;;;;;3.40;1.40;;;3.50;99.90;;;;;;5004919;28;20507;-86
2021/03/16 01:37:00;;;;;;;5.10;1.30;;;3.50;99.90;;;;;;5005397;28;20050;-86
2021/03/16 01:39:27;;;;;;;13.25;2.55;;;3.50;99.90;;;;;;5004786;28;20115;-87
2021/03/16 01:41:53;;;;;;;6.78;1.42;;;3.50;99.90;;;;;;5005485;28;20479;-87
2021/03/16 01:44:20;;;;;;;7.38;1.65;;;3.60;99.90;;;;;;5004267;28;20049;-86
2021/03/16 01:46:46;;;;;;;3.67;1.42;;;3.60;99.90;;;;;;5004663;28;20053;-86
2021/03/16 01:49:14;;;;;;;6.05;1.60;;;3.60;99.90;;;;;;5022061;28;20053;-86
2021/03/16 01:51:41;;;;;;;5.50;1.38;;;3.70;99.90;;;;;;5005276;28;20073;-87
2021/03/16 01:54:08;;;;;;;5.53;1.63;;;3.60;99.90;;;;;;5004998;28;20049;-86
2021/03/16 01:56:38;;;;;;;7.53;1.63;;;3.60;99.90;;;;;;5003600;28;20050;-84
2021/03/16 01:59:05;;;;;;;12.20;2.22;;;3.60;99.90;;;;;;5004582;28;20061;-86
2021/03/16 02:01:32;;;;;;;6.97;1.75;;;3.60;99.90;;;;;;5005258;28;20050;-86
2021/03/16 02:03:58;;;;;;;5.22;1.13;;;3.60;99.90;;;;;;5004815;28;20104;-87
2021/03/16 02:06:52;;;;;;;7.90;1.55;;;3.60;99.90;;;;;;5005006;28;20156;-86
2021/03/16 02:09:31;;;;;;;5.43;1.17;;;3.60;99.90;;;;;;5005193;28;20050;-86
2021/03/16 02:12:21;;;;;;;5.63;1.25;;;3.60;99.90;;;;;;5005182;28;20109;-86
2021/03/16 02:15:28;;;;;;;6.28;1.55;;;3.60;99.90;;;;;;5022977;28;20072;-87
2021/03/16 02:17:56;;;;;;;5.22;1.50;;;3.70;99.90;;;;;;5001712;28;20500;-84
2021/03/16 02:20:45;;;;;;;5.00;1.45;;;3.70;99.90;;;;;;5005529;28;20500;-87
2021/03/16 02:23:19;;;;;;;6.97;2.05;;;3.70;99.90;;;;;;5004810;28;20050;-86
2021/03/16 02:26:16;;;;;;;3.55;1.10;;;3.70;99.90;;;;;;5005987;28;20080;-86
2021/03/16 02:29:07;;;;;;;5.47;1.17;;;3.70;99.90;;;;;;5005468;28;20050;-86
2021/03/16 02:31:59;;;;;;;5.25;1.33;;;3.70;99.90;;;;;;4989122;28;20046;-87
2021/03/16 02:34:29;;;;;;;5.95;0.93;;;3.70;99.90;;;;;;5002960;28;20057;-86
2021/03/16 02:36:57;;;;;;;3.20;1.02;;;3.70;99.90;;;;;;5005705;28;20050;-84
2021/03/16 02:39:25;;;;;;;7.68;1.27;;;3.60;99.90;;;;;;5002360;28;20149;-85
2021/03/16 02:41:52;;;;;;;4.57;1.10;;;3.70;99.90;;;;;;5024955;28;20470;-86
2021/03/16 02:44:19;;;;;;;2.47;0.82;;;3.70;99.90;;;;;;5007861;28;20045;-86
2021/03/16 02:46:52;;;;;;;5.25;1.10;;;3.70;99.90;;;;;;5004456;28;20046;-85
2021/03/16 02:49:20;;;;;;;3.33;1.00;;;3.70;99.90;;;;;;5004033;28;20069;-85
2021/03/16 02:51:47;;;;;;;6.78;1.45;;;3.70;99.90;;;;;;5005743;28;20077;-86
2021/03/16 02:54:14;;;;;;;4.72;1.00;;;3.70;99.90;;;;;;5004413;28;20084;-85
2021/03/16 02:56:42;;;;;;;6.00;0.95;;;3.70;99.90;;;;;;5004595;28;20057;-85
2021/03/16 02:59:09;;;;;;;4.07;1.20;;;3.80;99.90;;;;;;5006174;28;20045;-85
2021/03/16 03:01:40;;;;;;;3.90;1.38;;;3.80;99.90;;;;;;5005009;28;20050;-83
2021/03/16 03:04:08;;;;;;;3.30;1.10;;;3.70;99.90;;;;;;5004592;28;20554;-85
2021/03/16 03:06:39;;;;;;;4.90;0.95;;;3.70;99.90;;;;;;5022548;28;20053;-85
2021/03/16 03:09:09;;;;;;;2.80;0.68;;;3.70;99.90;;;;;;5005171;28;20496;-85
2021/03/16 03:11:35;;;;;;;5.20;1.20;;;3.70;99.90;;;;;;5004751;28;20495;-85
2021/03/16 03:14:04;;;;;;;4.22;1.13;;;3.70;99.90;;;;;;5003849;28;20072;-86
2021/03/16 03:16:30;;;;;;;1.23;0.60;;;3.70;99.90;;;;;;5004440;28;20114;-86
2021/03/16 03:18:57;;;;;;;4.65;0.88;;;3.70;99.90;;;;;;5005554;28;20068;-86
2021/03/16 03:21:34;;;;;;;5.28;1.40;;;3.70;99.90;;;;;;5005717;28;20046;-85
2021/03/16 03:24:05;;;;;;;4.65;1.05;;;3.70;99.90;;;;;;5004819;28;20392;-85
2021/03/16 03:27:06;;;;;;;7.47;1.30;;;3.70;99.90;;;;;;5004929;28;20177;-83
2021/03/16 03:29:34;;;;;;;3.05;0.90;;;3.70;99.90;;;;;;4992135;28;20050;-85
2021/03/16 03:32:03;;;;;;;7.75;1.23;;;3.80;99.90;;;;;;5005180;28;20053;-83
2021/03/16 03:34:34;;;;;;;4.80;1.10;;;3.80;99.90;;;;;;4998523;28;20074;-86
2021/03/16 03:37:02;;;;;;;3.78;1.10;;;3.80;99.90;;;;;;4986024;28;20054;-86
2021/03/16 03:39:32;;;;;;;5.05;1.08;;;3.70;99.90;;;;;;4984715;28;20074;-85
2021/03/16 03:41:59;;;;;;;7.45;1.23;;;3.70;99.90;;;;;;4986101;28;20082;-86
2021/03/16 03:44:28;;;;;;;5.70;1.08;;;3.80;99.90;;;;;;4985477;28;20069;-86
2021/03/16 03:46:55;;;;;;;4.63;1.08;;;3.70;99.90;;;;;;4984698;28;20054;-86
2021/03/16 03:49:23;;;;;;;5.50;1.42;;;3.60;99.90;;;;;;4984428;28;20424;-86
2021/03/16 03:51:51;;;;;;;8.50;1.35;;;3.60;99.90;;;;;;4998733;28;20073;-85
2021/03/16 03:54:19;;;;;;;6.70;1.05;;;3.70;99.90;;;;;;4983572;28;20073;-85
2021/03/16 03:56:46;;;;;;;4.05;1.13;;;3.70;99.90;;;;;;4987318;28;20077;-86
2021/03/16 03:59:14;;;;;;;4.88;1.58;;;3.70;99.90;;;;;;4986769;28;20083;-85
2021/03/16 04:01:41;;;;;;;5.78;1.30;;;3.70;99.90;;;;;;4985694;28;20081;-86
2021/03/16 04:04:08;;;;;;;5.68;0.98;;;3.70;99.90;;;;;;4986039;28;20050;-86
2021/03/16 04:06:36;;;;;;;8.57;1.50;;;3.70;99.90;;;;;;4986344;28;20435;-85
2021/03/16 04:09:04;;;;;;;8.07;1.42;;;3.70;99.90;;;;;;4985409;28;20047;-86
2021/03/16 04:11:30;;;;;;;5.93;1.00;;;3.60;99.90;;;;;;4985631;28;20073;-86
2021/03/16 04:13:57;;;;;;;5.38;1.42;;;3.60;99.90;;;;;;4986187;28;20113;-85
2021/03/16 04:16:25;;;;;;;6.25;1.35;;;3.60;99.90;;;;;;4985724;28;20047;-85
2021/03/16 04:18:52;;;;;;;6.63;1.60;;;3.60;99.90;;;;;;4988118;28;20051;-86
2021/03/16 04:21:18;;;;;;;4.13;1.83;;;3.60;99.90;;;;;;4985039;28;20484;-86
2021/03/16 04:23:45;;;;;;;15.40;1.83;;;3.70;99.90;;;;;;4986147;28;20050;-86
2021/03/16 04:26:11;;;;;;;3.35;1.05;;;3.60;99.90;;;;;;5003644;28;20077;-85
2021/03/16 04:28:38;;;;;;;7.85;1.20;;;3.70;99.90;;;;;;4984198;28;20478;-85
2021/03/16 04:31:04;;;;;;;4.25;1.20;;;3.70;99.90;;;;;;4983848;28;20046;-86
2021/03/16 04:33:31;;;;;;;4.50;1.58;;;3.60;99.90;;;;;;4984477;28;20058;-86
2021/03/16 04:35:58;;;;;;;7.95;1.40;;;3.70;99.90;;;;;;5020829;28;20115;-86
2021/03/16 04:38:25;;;;;;;8.02;1.45;;;3.70;99.90;;;;;;5004121;28;20049;-86
2021/03/16 04:40:52;;;;;;;4.25;0.80;;;3.70;99.90;;;;;;5003842;28;20073;-85
2021/03/16 04:43:18;;;;;;;8.20;1.80;;;3.70;99.90;;;;;;5006125;28;20085;-86
2021/03/16 04:45:45;;;;;;;7.85;1.60;;;3.70;99.90;;;;;;5025075;28;20054;-86
2021/03/16 04:48:11;;;;;;;6.30;1.38;;;3.60;99.90;;;;;;5008316;28;20554;-86
2021/03/16 04:50:38;;;;;;;4.63;1.10;;;3.60;99.90;;;;;;5007570;28;20388;-85
2021/03/16 04:53:04;;;;;;;4.88;1.52;;;3.60;99.90;;;;;;5007338;28;20058;-85
2021/03/16 04:55:31;;;;;;;5.03;1.33;;;3.60;99.90;;;;;;5006840;28;20057;-85
2021/03/16 04:57:58;;;;;;;8.50;1.52;;;3.60;99.90;;;;;;5025239;28;20096;-85
2021/03/16 05:00:25;;;;;;;5.88;1.48;;;3.60;99.90;;;;;;5004352;28;20096;-86
2021/03/16 05:02:51;;;;;;;5.90;1.20;;;3.60;99.90;;;;;;5004167;28;20500;-85
2021/03/16 05:05:18;;;;;;;5.22;1.48;;;3.60;99.90;;;;;;5003735;28;20049;-83
2021/03/16 05:07:45;;;;;;;4.47;1.15;;;3.50;99.90;;;;;;5003927;28;20057;-86
2021/03/16 05:10:12;;;;;;;4.13;1.23;;;3.50;99.90;;;;;;5004011;28;20088;-86
2021/03/16 05:12:38;;;;;;;3.90;1.02;;;3.40;99.90;;;;;;5007518;28;20076;-86
2021/03/16 05:15:08;;;;;;;6.88;1.42;;;3.50;99.90;;;;;;5008276;28;20462;-86
2021/03/16 05:17:35;;;;;;;4.35;1.13;;;3.40;99.90;;;;;;5008054;28;20050;-84
2021/03/16 05:20:01;;;;;;;8.98;1.95;;;3.40;99.90;;;;;;5007890;28;20073;-86
2021/03/16 05:22:28;;;;;;;7.03;1.50;;;3.30;99.90;;;;;;5007167;28;20113;-86
2021/03/16 05:24:54;;;;;;;10.07;2.10;;;3.30;99.90;;;;;;5007262;28;20050;-86
2021/03/16 05:27:20;;;;;;;8.43;1.50;;;3.40;99.90;;;;;;5025691;28;20400;-85
2021/03/16 05:29:47;;;;;;;8.13;1.50;;;3.40;99.90;;;;;;5007302;28;20042;-85
2021/03/16 05:32:13;;;;;;;11.88;1.70;;;3.40;99.90;;;;;;5007339;28;20459;-85
2021/03/16 05:34:40;;;;;;;7.05;1.40;;;3.40;99.90;;;;;;5007840;28;20072;-85
2021/03/16 05:37:06;;;;;;;26.33;2.90;;;3.40;99.90;;;;;;5007530;28;20073;-85
2021/03/16 05:39:33;;;;;;;8.10;0.95;;;3.40;99.90;;;;;;5007494;28;20049;-85
2021/03/16 05:42:00;;;;;;;11.63;1.80;;;3.40;99.90;;;;;;5006472;28;20073;-85
2021/03/16 05:44:28;;;;;;;3.80;1.52;;;3.40;99.90;;;;;;5006396;28;20058;-85
2021/03/16 05:46:54;;;;;;;7.70;1.35;;;3.50;99.90;;;;;;5008455;28;20934;-85
2021/03/16 05:49:23;;;;;;;5.05;1.40;;;3.50;99.90;;;;;;5007988;28;20500;-85
2021/03/16 05:51:50;;;;;;;5.13;1.10;;;3.50;99.90;;;;;;5006812;28;20077;-85
2021/03/16 05:54:17;;;;;;;4.63;1.08;;;3.50;99.90;;;;;;5006713;28;20046;-85
2021/03/16 05:56:44;;;;;;;9.98;1.27;;;3.50;99.90;;;;;;5007222;28;20056;-86
2021/03/16 05:59:23;;;;;;;5.93;1.77;;;3.50;99.90;;;;;;5007794;28;20050;-86
2021/03/16 06:01:50;;;;;;;3.58;1.10;;;3.50;99.90;;;;;;5024002;28;20133;-86
2021/03/16 06:04:16;;;;;;;6.40;1.35;;;3.60;99.90;;;;;;5006994;28;20045;-85
2021/03/16 06:06:43;;;;;;;8.25;1.05;;;3.60;99.90;;;;;;5005517;28;20042;-85
2021/03/16 06:09:09;;;;;;;5.55;1.10;;;3.60;99.90;;;;;;5007056;28;20077;-85
2021/03/16 06:11:35;;;;;;;4.95;1.55;;;3.60;99.90;;;;;;5007334;28;20050;-84
2021/03/16 06:14:02;;;;;;;10.55;2.20;;;3.70;99.90;;;;;;5004296;28;20100;-85
2021/03/16 06:16:34;;;;;;;7.20;1.52;;;3.60;99.90;;;;;;5004316;28;20072;-85
2021/03/16 06:19:01;;;;;;;5.07;1.20;;;3.60;99.90;;;;;;5004691;28;20078;-86
2021/03/16 06:21:27;;;;;;;5.85;1.10;;;3.70;99.90;;;;;;5003333;28;20072;-85
2021/03/16 06:23:55;;;;;;;5.28;0.95;;;3.80;99.90;;;;;;5003025;28;20076;-85
2021/03/16 06:26:27;;;;;;;3.55;0.88;;;3.80;99.90;;;;;;5020643;28;20100;-86
2021/03/16 06:29:08;;;;;;;7.30;1.50;;;3.90;99.90;;;;;;5008553;28;20053;-86
2021/03/16 06:31:34;;;;;;;2.63;1.10;;;3.90;99.90;;;;;;5005064;28;20488;-86
2021/03/16 06:34:01;;;;;;;5.13;1.15;;;3.90;99.90;;;;;;5024838;28;20100;-86
2021/03/16 06:36:30;;;;;;;5.55;1.00;;;4.00;99.90;;;;;;5007353;28;20463;-86
2021/03/16 06:38:57;;;;;;;2.58;1.10;;;4.00;99.90;;;;;;5007572;28;20066;-84
2021/03/16 06:41:24;;;;;;;9.13;1.02;;;4.10;99.90;;;;;;5006820;28;20050;-86
2021/03/16 06:43:56;;;;;;;8.35;1.10;;;4.20;99.90;;;;;;5006379;28;20522;-86
2021/03/16 06:46:39;;;;;;;7.07;1.30;;;4.30;99.90;;;;;;5008682;28;20050;-86
2021/03/16 06:49:14;;;;;;;5.28;1.10;;;4.20;99.90;;;;;;5007677;28;20166;-85
2021/03/16 06:51:41;;;;;;;8.88;1.20;;;4.20;99.90;;;;;;5007709;28;20072;-86
2021/03/16 06:54:15;;;;;;;9.48;1.30;;;4.20;99.90;;;;;;5008267;28;20057;-86
2021/03/16 06:56:56;;;;;;;4.07;0.95;;;4.10;99.90;;;;;;5008600;28;20100;-86
2021/03/16 06:59:27;;;;;;;6.70;1.20;;;4.10;99.90;;;;;;5012148;28;20077;-86
2021/03/16 07:01:54;;;;;;;3.25;0.75;;;4.00;99.90;;;;;;5010965;28;20050;-87
2021/03/16 07:04:31;;;;;;;6.47;1.02;;;4.00;99.90;;;;;;5008546;28;20050;-85
2021/03/16 07:06:59;;;;;;;65.32;5.40;;;3.90;99.90;;;;;;5004031;28;20049;-85
2021/03/16 07:09:26;;;;;;;8.50;1.60;;;4.00;99.90;;;;;;5005040;28;20056;-86
2021/03/16 07:11:54;;;;;;;5.68;1.67;;;4.10;99.90;;;;;;5005406;28;20120;-86
2021/03/16 07:14:21;;;;;;;2.53;1.35;;;4.20;99.90;;;;;;5005586;28;20168;-85
2021/03/16 07:16:49;;;;;;;6.90;2.55;;;4.30;99.90;;;;;;4999829;28;20046;-85
2021/03/16 07:19:17;;;;;;;8.10;1.08;;;4.60;99.90;;;;;;5005825;28;20045;-86
2021/03/16 07:21:51;;;;;;;6.10;1.20;;;4.70;99.90;;;;;;4996562;28;20499;-86
2021/03/16 07:24:21;;;;;;;2.40;0.95;;;4.80;99.90;;;;;;5000495;28;20069;-84
2021/03/16 07:26:48;;;;;;;3.70;0.85;;;4.90;99.90;;;;;;5004611;28;20038;-85
2021/03/16 07:29:16;;;;;;;6.70;1.15;;;4.80;99.90;;;;;;5006295;28;20049;-86
2021/03/16 07:31:59;;;;;;;3.03;0.80;;;5.00;99.90;;;;;;5004084;28;20191;-85
2021/03/16 07:34:25;;;;;;;2.95;1.08;;;5.10;99.90;;;;;;5003771;28;20053;-84
2021/03/16 07:36:53;;;;;;;2.97;1.40;;;5.20;99.90;;;;;;5022635;28;20411;-86
2021/03/16 07:39:22;;;;;;;4.50;1.20;;;5.10;99.90;;;;;;5004666;28;20551;-85
2021/03/16 07:41:49;;;;;;;4.80;1.02;;;5.00;99.90;;;;;;5004293;28;20147;-85
2021/03/16 07:44:17;;;;;;;4.20;1.00;;;5.00;99.90;;;;;;5009033;28;20069;-85
2021/03/16 07:46:46;;;;;;;1.35;0.90;;;5.00;99.90;;;;;;5004033;28;20061;-86
2021/03/16 07:49:15;;;;;;;5.00;1.10;;;4.90;99.90;;;;;;5006434;28;20053;-85
2021/03/16 07:51:43;;;;;;;3.65;1.15;;;5.20;99.90;;;;;;5004902;28;20368;-86
2021/03/16 07:54:12;;;;;;;9.02;1.58;;;5.20;99.90;;;;;;5023162;28;20412;-85
2021/03/16 07:56:41;;;;;;;4.13;0.98;;;5.60;99.90;;;;;;5005813;28;20168;-86
2021/03/16 07:59:09;;;;;;;6.28;1.00;;;5.80;99.90;;;;;;5005204;28;20046;-86
2021/03/16 08:01:48;;;;;;;2.33;0.70;;;6.10;99.90;;;;;;5023646;28;20089;-85
2021/03/16 08:04:15;;;;;;;3.30;1.23;;;6.50;99.90;;;;;;5004531;28;20459;-86
2021/03/16 08:06:42;;;;;;;32.25;11.02;;;6.70;99.90;;;;;;5024558;28;20054;-86
2021/03/16 08:09:42;;;;;;;8.50;3.22;;;6.70;99.90;;;;;;5006005;28;20111;-85
2021/03/16 08:12:27;;;;;;;3.00;1.20;;;6.20;99.90;;;;;;5006321;28;20049;-86
2021/03/16 08:15:08;;;;;;;5.30;1.20;;;5.70;99.90;;;;;;5007294;28;20136;-86
2021/03/16 08:17:35;;;;;;;8.95;2.25;;;5.50;99.90;;;;;;5005228;28;20073;-85
2021/03/16 08:20:04;;;;;;;3.97;1.10;;;5.50;99.90;;;;;;5005901;28;20081;-86
2021/03/16 08:22:31;;;;;;;5.68;1.42;;;5.60;99.90;;;;;;5006675;28;20049;-86
2021/03/16 08:25:05;;;;;;;1.48;1.00;;;5.20;99.90;;;;;;5023945;28;20570;-86
2021/03/16 08:27:34;;;;;;;14.70;1.90;;;5.40;99.90;;;;;;5005967;28;20049;-85
2021/03/16 08:30:05;;;;;;;6.53;1.17;;;5.40;99.90;;;;;;5006884;28;20050;-85
2021/03/16 08:32:33;;;;;;;4.15;1.20;;;5.60;99.90;;;;;;5005284;28;20046;-86
2021/03/16 08:35:00;;;;;;;3.33;0.93;;;5.50;99.90;;;;;;5005471;28;20138;-87
2021/03/16 08:37:28;;;;;;;6.30;1.63;;;5.70;99.90;;;;;;5004289;28;20042;-85
2021/03/16 08:40:01;;;;;;;3.42;0.95;;;5.70;99.90;;;;;;5006914;28;20108;-85
2021/03/16 08:42:28;;;;;;;7.72;2.22;;;5.70;99.90;;;;;;5005567;28;20045;-85
2021/03/16 08:44:56;;;;;;;10.40;1.90;;;6.30;99.90;;;;;;5004102;28;20050;-85
2021/03/16 08:47:24;;;;;;;4.35;1.13;;;6.60;99.90;;;;;;5001203;28;20077;-85
2021/03/16 08:49:53;;;;;;;3.17;1.23;;;6.70;99.90;;;;;;4999895;28;20077;-86
2021/03/16 08:52:25;;;;;;;4.10;1.38;;;6.20;99.90;;;;;;5001326;28;20050;-85
2021/03/16 08:54:58;;;;;;;4.70;1.00;;;6.00;99.90;;;;;;5001327;28;20057;-85
2021/03/16 08:57:31;;;;;;;4.57;1.02;;;5.80;99.90;;;;;;5004559;28;20042;-85
2021/03/16 08:59:59;;;;;;;10.68;3.63;;;5.50;99.90;;;;;;5021869;28;20057;-85
2021/03/16 09:02:36;;;;;;;15.20;2.40;;;5.30;99.90;;;;;;5004354;28;20516;-85
2021/03/16 09:05:04;;;;;;;28.50;3.30;;;5.40;99.90;;;;;;5004148;28;20077;-85
2021/03/16 09:07:32;;;;;;;4.50;1.00;;;5.60;99.90;;;;;;5003269;28;20065;-84
2021/03/16 09:10:05;;;;;;;3.90;1.20;;;5.50;99.90;;;;;;5003815;28;20069;-85
2021/03/16 09:12:31;;;;;;;15.52;1.40;;;5.60;99.90;;;;;;5021772;28;20046;-85
2021/03/16 09:15:06;;;;;;;2.35;1.20;;;5.50;99.90;;;;;;5005485;28;20045;-85
2021/03/16 09:17:34;;;;;;;6.53;1.67;;;5.20;99.90;;;;;;5007515;28;20046;-86
2021/03/16 09:20:35;;;;;;;7.85;1.52;;;5.20;99.90;;;;;;5006281;28;20066;-86
2021/03/16 09:23:06;;;;;;;17.85;1.77;;;5.50;99.90;;;;;;5007174;28;20065;-86
2021/03/16 09:25:44;;;;;;;5.10;0.90;;;5.60;99.90;;;;;;5008715;28;20440;-85
2021/03/16 09:28:13;;;;;;;6.45;1.52;;;5.80;99.90;;;;;;5006885;28;20136;-86
2021/03/16 09:30:55;;;;;;;9.55;1.40;;;6.00;99.90;;;;;;5008535;28;20046;-85
2021/03/16 09:33:24;;;;;;;11.77;1.83;;;6.30;99.90;;;;;;5029880;28;20054;-85
2021/03/16 09:35:59;;;;;;;10.25;1.73;;;6.60;99.90;;;;;;5027878;28;20085;-85
2021/03/16 09:38:27;;;;;;;6.20;1.38;;;6.60;99.90;;;;;;5009958;28;20104;-86
2021/03/16 09:40:54;;;;;;;11.57;1.70;;;6.40;99.90;;;;;;5010387;28;20483;-86
2021/03/16 09:43:47;;;;;;;3.53;1.42;;;6.80;99.90;;;;;;5028082;28;20057;-85
2021/03/16 09:46:14;;;;;;;5.15;1.15;;;7.10;99.90;;;;;;5007013;28;20064;-85
2021/03/16 09:48:55;;;;;;;3.65;1.20;;;7.30;99.90;;;;;;5009857;28;20061;-85
2021/03/16 09:51:25;;;;;;;6.47;1.20;;;7.50;99.90;;;;;;5027991;28;20054;-86
2021/03/16 09:53:53;;;;;;;6.60;1.83;;;7.90;99.90;;;;;;5010567;28;20066;-86
2021/03/16 09:56:26;;;;;;;10.02;1.33;;;7.40;99.90;;;;;;5010080;28;20074;-86
2021/03/16 09:58:58;;;;;;;12.48;2.05;;;7.40;99.90;;;;;;5008811;28;20069;-86
2021/03/16 10:01:25;;;;;;;2.72;1.13;;;7.40;99.90;;;;;;5006190;28;20075;-86
2021/03/16 10:03:59;;;;;;;5.60;1.10;;;7.30;99.90;;;;;;5005662;28;20054;-85
2021/03/16 10:06:42;;;;;;;7.65;1.40;;;7.30;99.90;;;;;;5005498;28;20514;-86
2021/03/16 10:09:22;;;;;;;6.95;1.58;;;7.80;99.90;;;;;;5006136;28;20550;-85
2021/03/16 10:11:50;;;;;;;6.47;1.40;;;8.10;99.90;;;;;;5006125;28;20080;-86
2021/03/16 10:14:31;;;;;;;1.65;1.30;;;8.00;99.90;;;;;;5006745;28;20054;-85
2021/03/16 10:16:57;;;;;;;11.60;1.55;;;8.20;99.90;;;;;;5007996;28;20050;-86
2021/03/16 10:19:24;;;;;;;11.18;1.52;;;8.00;99.90;;;;;;5007881;28;20068;-84
2021/03/16 10:21:51;;;;;;;5.60;1.95;;;7.70;99.90;;;;;;5026760;28;20068;-85
2021/03/16 10:24:27;;;;;;;9.25;1.55;;;7.70;99.90;;;;;;5009537;28;20054;-86
2021/03/16 10:27:00;;;;;;;6.90;1.20;;;8.00;99.90;;;;;;5008439;28;20053;-85
2021/03/16 10:29:27;;;;;;;2.53;0.82;;;8.30;99.90;;;;;;5009035;28;20060;-85
2021/03/16 10:31:54;;;;;;;3.83;1.05;;;8.20;99.90;;;;;;5009778;28;20161;-86
2021/03/16 10:34:20;;;;;;;5.07;1.35;;;8.60;99.90;;;;;;5007936;28;20062;-86
2021/03/16 10:36:47;;;;;;;7.35;1.02;;;8.50;99.90;;;;;;5010228;28;20488;-86
2021/03/16 10:39:13;;;;;;;3.70;1.00;;;8.40;99.90;;;;;;5007688;28;20053;-86
2021/03/16 10:41:39;;;;;;;11.43;2.63;;;8.20;99.90;;;;;;5009059;28;20053;-86
2021/03/16 10:44:07;;;;;;;6.30;1.08;;;8.20;99.90;;;;;;5010527;28;20045;-86
2021/03/16 10:46:35;;;;;;;5.05;1.73;;;8.40;99.90;;;;;;5027496;28;20053;-86
2021/03/16 10:49:02;;;;;;;4.72;1.00;;;8.50;99.90;;;;;;5029199;28;20053;-86
2021/03/16 10:51:33;;;;;;;4.78;1.05;;;8.70;99.90;;;;;;5010251;28;20054;-85
2021/03/16 10:53:59;;;;;;;4.60;1.27;;;8.50;99.90;;;;;;5010557;28;20050;-85
2021/03/16 10:56:25;;;;;;;2.50;0.90;;;8.10;98.20;;;;;;5007991;28;20054;-86
2021/03/16 10:58:51;;;;;;;4.60;1.27;;;7.80;99.90;;;;;;5012499;28;20065;-85
2021/03/16 11:01:18;;;;;;;3.63;1.25;;;7.90;99.90;;;;;;5012428;28;20049;-82
2021/03/16 11:03:44;;;;;;;1.80;0.80;;;7.90;99.90;;;;;;5012717;28;20106;-86
2021/03/16 11:06:11;;;;;;;4.60;1.08;;;7.80;99.90;;;;;;5015231;28;20049;-88
2021/03/16 11:08:37;;;;;;;2.17;0.90;;;7.80;99.90;;;;;;5012221;28;20054;-85
2021/03/16 11:11:04;;;;;;;6.30;1.25;;;7.60;99.90;;;;;;5016598;28;20033;-86
2021/03/16 11:13:30;;;;;;;4.38;1.17;;;7.90;99.90;;;;;;5016309;28;20050;-85
2021/03/16 11:15:56;;;;;;;5.25;1.27;;;7.80;99.90;;;;;;5015091;28;20042;-85
2021/03/16 11:18:23;;;;;;;11.02;1.60;;;8.40;99.90;;;;;;5004452;28;20046;-86
2021/03/16 11:20:50;;;;;;;4.55;0.88;;;8.80;99.90;;;;;;5003414;28;20150;-86
2021/03/16 11:23:17;;;;;;;3.30;0.88;;;9.00;96.80;;;;;;5006452;28;20076;-86
2021/03/16 11:25:43;;;;;;;1.67;0.90;;;9.00;96.90;;;;;;5006485;28;20057;-83
2021/03/16 11:28:10;;;;;;;3.72;0.73;;;8.90;98.10;;;;;;5007347;28;20050;-83
2021/03/16 11:30:36;;;;;;;6.22;1.00;;;8.80;97.50;;;;;;5007319;28;20046;-86
2021/03/16 11:33:03;;;;;;;6.57;1.50;;;8.50;97.80;;;;;;5008210;28;20107;-86
2021/03/16 11:35:29;;;;;;;3.55;0.65;;;7.90;99.90;;;;;;5011329;28;20052;-83
2021/03/16 11:37:55;;;;;;;8.48;0.90;;;7.80;99.90;;;;;;4986920;28;20046;-86
2021/03/16 11:40:21;;;;;;;6.38;1.27;;;8.10;99.90;;;;;;4986763;28;20050;-86
2021/03/16 11:42:48;;;;;;;3.17;1.00;;;8.10;99.90;;;;;;5005701;28;20046;-86
2021/03/16 11:45:14;;;;;;;7.38;1.05;;;8.00;99.90;;;;;;5005312;28;20061;-83
2021/03/16 11:47:40;;;;;;;6.25;1.27;;;8.20;99.90;;;;;;4987380;28;20544;-83
2021/03/16 11:50:07;;;;;;;10.65;1.75;;;8.20;99.90;;;;;;4986946;28;20046;-85
2021/03/16 11:52:34;;;;;;;4.57;0.90;;;8.30;99.60;;;;;;4987259;28;20058;-85
2021/03/16 11:55:00;;;;;;;7.80;0.80;;;8.60;98.30;;;;;;4990129;28;20046;-86
2021/03/16 11:57:27;;;;;;;5.15;1.30;;;8.70;99.10;;;;;;4989058;28;20050;-85
2021/03/16 11:59:53;;;;;;;11.68;1.38;;;8.40;98.30;;;;;;4986499;28;20563;-85
2021/03/16 12:02:19;;;;;;;6.18;1.30;;;8.00;98.80;;;;;;4987534;28;20065;-85
2021/03/16 12:04:46;;;;;;;11.63;1.13;;;7.60;99.90;;;;;;5004131;28;20050;-85
2021/03/16 12:07:12;;;;;;;2.80;0.93;;;7.70;99.90;;;;;;5004700;28;20050;-86
2021/03/16 12:09:46;;;;;;;2.80;1.02;;;7.90;99.90;;;;;;4987187;28;20078;-85
2021/03/16 12:12:13;;;;;;;4.43;1.00;;;8.00;98.40;;;;;;4987964;28;20050;-85
2021/03/16 12:14:40;;;;;;;6.10;0.98;;;8.20;99.90;;;;;;4987802;28;20054;-85
2021/03/16 12:17:08;;;;;;;2.67;1.08;;;8.50;97.50;;;;;;4988335;28;20042;-85
2021/03/16 12:19:35;;;;;;;10.65;1.27;;;9.10;96.80;;;;;;4987664;28;20058;-86
2021/03/16 12:22:01;;;;;;;4.90;1.05;;;9.30;95.40;;;;;;4985945;28;20054;-85
2021/03/16 12:24:27;;;;;;;5.20;1.00;;;9.20;92.60;;;;;;4987334;28;20135;-85
2021/03/16 12:26:54;;;;;;;2.30;0.47;;;9.30;92.30;;;;;;4986470;28;20052;-86
2021/03/16 12:29:20;;;;;;;3.83;0.77;;;9.50;91.70;;;;;;5003140;28;20050;-85
2021/03/16 12:31:46;;;;;;;4.43;0.82;;;9.20;91.40;;;;;;4998608;28;20053;-83
2021/03/16 12:34:16;;;;;;;10.48;1.20;;;9.30;91.70;;;;;;4989114;28;20053;-86
2021/03/16 12:36:43;;;;;;;7.55;0.98;;;9.30;91.40;;;;;;5005124;28;20069;-86
2021/03/16 12:39:09;;;;;;;10.07;1.05;;;9.10;92.50;;;;;;5005468;28;20061;-86
2021/03/16 12:41:35;;;;;;;11.57;1.17;;;9.00;90.70;;;;;;5005359;28;20049;-86
2021/03/16 12:44:02;;;;;;;8.25;1.05;;;8.80;93.80;;;;;;5005597;28;20049;-86
2021/03/16 12:46:28;;;;;;;6.15;1.10;;;8.40;94.20;;;;;;5003472;28;20466;-85
2021/03/16 12:48:55;;;;;;;4.05;0.80;;;8.50;93.10;;;;;;5007273;28;20077;-83
2021/03/16 12:51:22;;;;;;;9.95;0.88;;;8.70;92.80;;;;;;5006311;28;20053;-86
2021/03/16 12:53:48;;;;;;;4.72;0.95;;;9.10;92.20;;;;;;5008937;28;20484;-84
2021/03/16 12:56:15;;;;;;;6.22;1.70;;;9.10;91.40;;;;;;5024615;28;20049;-84
2021/03/16 12:58:41;;;;;;;6.63;1.25;;;8.90;91.00;;;;;;5007488;28;20053;-85
2021/03/16 13:01:07;;;;;;;5.30;1.00;;;8.60;92.40;;;;;;5008141;28;20054;-84
2021/03/16 13:03:34;;;;;;;6.65;0.93;;;8.70;94.20;;;;;;5008558;28;20085;-84
2021/03/16 13:06:01;;;;;;;12.50;1.70;;;8.60;93.80;;;;;;5010844;28;20136;-82